Danville, IL

4:48 PM CDT on May 29, 2015 (GMT -0500)
Danville Area Community College | | Change Station
CLOSE
Current Station
Personal Weather Station
Location: Danville, IL
Elevation: 656 ft
Nearby Weather Stations

Elev 656 ft 40.13 °N, 87.59 °W | Updated 1 minute ago

Mostly Cloudy
Mostly Cloudy
84.0 °F
Feels Like 86 °F
N
6.0
Wind Variable Wind from SSW
Gusts 11.0 mph

Today
High -- | Low -- °F
--% Chance of Precip.
Yesterday
High -- | Low -- °F
Precip. -- in
5:24 AM 8:11 PM
Waxing Gibbous, 86% visible
Pressure 29.95 in
Visibility 5.0 miles
Clouds Scattered Clouds 5000 ft
Heat Index 86 °F
Dew Point 66 °F
Humidity 55%
Rainfall 0.00 in
Snow Depth Not available.
UV 4 out of 12
Pollen 8.50 out of 12
Air Quality Not available.
Flu Activity Sporadic
METAR KDNV 292135Z AUTO 21014G19KT 5SM HZ SCT050 29/18 A2995 RMK AO2 T02920176

More Conditions Fewer Conditions

Pressure 29.95 in
Visibility 5.0 miles
Clouds Scattered Clouds 5000 ft
Heat Index 86 °F
Dew Point 66 °F
Humidity 55%
Rainfall 0.00 in
Snow Depth Not available.
UV 4 out of 12
Pollen 8.50 out of 12
Air Quality Not available.
Flu Activity Sporadic
METAR KDNV 292135Z AUTO 21014G19KT 5SM HZ SCT050 29/18 A2995 RMK AO2 T02920176

More Conditions Fewer Conditions

10-Day Weather Forecast

Almanac

Astronomy

May. 29, 2015 Rise Set
Actual Time
Civil Twilight
Nautical Twilight
Astronomical Twilight
Moon
Length of Visible Light
Length of Day
Tomorrow will be .
, % of the Moon is Illuminated

Today's Extremes

State Highs State Lows

Community

WunderPhotos

Upload Photos

1,825,372 photos uploaded!

WunderBlogs® & News

Nearby

Air Quality

  Air Quality AQ Index Pollutant
Not available.

Snow Depth

Station Depth Elevation

Earthquake Activity

City Distance Mag. Time & Date
Minimum magnitude displayed is 2.5.

Coastal Water Temperatures

Place Temperature

Stations

Nearby Weather Stations

Station Location Temp. Windchill Dew Point Humidity Wind Precip. Elev Updated Type